Time;durP1;ratioP1;P1;durP2;ratioP2;P2;SDS_P1;SDS_P2;PMS_P1;PMS_P2;Temp;Humidity;BMP_temperature;BMP_pressure;BME280_temperature;BME280_humidity;BME280_pressure;Samples;Min_cycle;Max_cycle;Signal;HPM_P1;HPM_P2
2021/11/16 00:01:26;;;;;;;25.47;18.73;;;10.20;99.20;;;;;;5050944;28;20407;-67
2021/11/16 00:03:53;;;;;;;25.70;18.97;;;10.10;99.50;;;;;;5051483;28;20842;-67
2021/11/16 00:06:20;;;;;;;24.80;17.80;;;10.00;99.80;;;;;;5052135;28;20487;-67
2021/11/16 00:08:46;;;;;;;22.50;16.90;;;10.10;99.80;;;;;;5050450;28;20577;-67
2021/11/16 00:11:12;;;;;;;22.70;17.73;;;10.10;99.80;;;;;;5051421;28;20503;-67
2021/11/16 00:13:38;;;;;;;22.00;15.97;;;10.10;99.70;;;;;;5052793;28;20428;-67
2021/11/16 00:16:05;;;;;;;21.77;16.20;;;10.00;99.70;;;;;;5055456;28;20405;-67
2021/11/16 00:18:31;;;;;;;21.20;15.83;;;10.00;99.70;;;;;;5054817;28;20579;-67
2021/11/16 00:20:58;;;;;;;25.13;17.10;;;10.10;99.70;;;;;;5055148;28;20888;-67
2021/11/16 00:23:25;;;;;;;24.27;17.87;;;10.10;99.90;;;;;;5055492;28;20397;-67
2021/11/16 00:25:56;;;;;;;22.10;17.17;;;10.10;99.80;;;;;;5055095;28;20424;-67
2021/11/16 00:28:23;;;;;;;24.70;17.97;;;10.20;99.90;;;;;;5055232;28;20456;-67
2021/11/16 00:30:49;;;;;;;22.90;16.40;;;10.20;99.80;;;;;;5055479;28;20527;-67
2021/11/16 00:33:16;;;;;;;22.83;15.97;;;10.30;99.70;;;;;;5053700;28;20411;-66
2021/11/16 00:35:42;;;;;;;21.70;15.40;;;10.30;99.60;;;;;;5055107;28;20773;-67
2021/11/16 00:38:14;;;;;;;22.77;16.80;;;10.30;99.30;;;;;;5054471;28;20418;-67
2021/11/16 00:40:41;;;;;;;22.17;16.00;;;10.30;99.30;;;;;;5055806;28;20409;-67
2021/11/16 00:43:08;;;;;;;22.50;15.77;;;10.30;99.30;;;;;;5053165;28;20453;-67
2021/11/16 00:45:40;;;;;;;20.70;16.23;;;10.30;99.20;;;;;;5054420;28;20448;-67
2021/11/16 00:48:07;;;;;;;23.17;16.60;;;10.30;99.20;;;;;;5054590;28;20459;-67
2021/11/16 00:50:36;;;;;;;22.43;16.17;;;10.10;99.20;;;;;;5055110;28;20433;-67
2021/11/16 00:53:02;;;;;;;22.70;16.00;;;10.20;99.60;;;;;;5054419;28;20416;-67
2021/11/16 00:55:28;;;;;;;21.43;16.57;;;10.20;99.30;;;;;;5055253;28;20420;-67
2021/11/16 00:57:54;;;;;;;23.80;16.87;;;10.10;99.40;;;;;;5054257;28;20463;-75
2021/11/16 01:00:19;;;;;;;24.97;17.60;;;9.90;99.90;;;;;;5055294;28;20200;-67
2021/11/16 01:02:46;;;;;;;24.80;17.33;;;9.90;99.90;;;;;;5054611;28;20906;-67
2021/11/16 01:05:12;;;;;;;19.87;16.20;;;9.90;99.90;;;;;;5053654;28;20655;-67
2021/11/16 01:07:42;;;;;;;21.90;16.17;;;9.90;99.90;;;;;;5054553;28;20772;-67
2021/11/16 01:10:10;;;;;;;24.50;17.50;;;9.90;99.90;;;;;;5054093;28;20434;-67
2021/11/16 01:12:36;;;;;;;22.90;16.90;;;9.90;99.90;;;;;;5054414;28;20412;-67
2021/11/16 01:15:04;;;;;;;26.73;16.60;;;10.00;99.90;;;;;;5053587;28;20435;-66
2021/11/16 01:17:30;;;;;;;22.73;16.57;;;10.10;99.90;;;;;;5054903;28;20410;-67
2021/11/16 01:19:56;;;;;;;23.53;17.43;;;10.10;99.90;;;;;;5053964;28;20419;-69
2021/11/16 01:22:22;;;;;;;22.97;16.57;;;10.10;99.90;;;;;;5054487;28;20201;-67
2021/11/16 01:24:48;;;;;;;23.70;16.60;;;10.10;99.90;;;;;;5053990;28;20490;-67
2021/11/16 01:27:18;;;;;;;25.03;17.03;;;10.20;99.80;;;;;;5052726;28;20248;-67
2021/11/16 01:29:50;;;;;;;22.13;16.20;;;10.10;99.60;;;;;;5054509;28;20454;-66
2021/11/16 01:34:52;;;;;;;23.80;16.40;;;10.20;99.90;;;;;;5054394;28;20445;-67
2021/11/16 01:37:18;;;;;;;22.00;15.53;;;10.20;99.70;;;;;;5053302;28;20467;-67
2021/11/16 01:39:44;;;;;;;24.03;17.73;;;10.30;99.70;;;;;;5054591;28;20423;-67
2021/11/16 01:42:10;;;;;;;21.00;16.23;;;10.20;99.60;;;;;;5053589;28;20184;-66
2021/11/16 01:44:36;;;;;;;24.50;17.20;;;10.20;99.70;;;;;;5053728;28;20420;-66
2021/11/16 01:47:02;;;;;;;24.83;17.23;;;10.10;99.80;;;;;;5053288;28;20185;-67
2021/11/16 01:49:28;;;;;;;24.80;16.67;;;10.20;99.90;;;;;;5053563;28;20463;-67
2021/11/16 01:51:54;;;;;;;23.03;16.63;;;10.20;99.70;;;;;;5052808;28;20506;-67
2021/11/16 01:54:19;;;;;;;24.00;16.70;;;10.20;99.70;;;;;;5053346;28;20176;-67
2021/11/16 01:56:46;;;;;;;22.83;17.00;;;10.20;99.70;;;;;;5053809;28;20183;-67
2021/11/16 01:59:13;;;;;;;21.57;15.90;;;10.20;99.80;;;;;;5053278;28;20187;-67
2021/11/16 02:01:40;;;;;;;23.43;17.33;;;10.20;99.60;;;;;;5053579;28;20423;-67
2021/11/16 02:04:08;;;;;;;24.43;17.20;;;10.30;99.70;;;;;;5053135;28;20448;-67
2021/11/16 02:06:39;;;;;;;23.93;16.23;;;10.30;99.60;;;;;;5053521;28;20400;-67
2021/11/16 02:09:08;;;;;;;23.07;16.60;;;10.20;99.50;;;;;;5052624;28;20471;-67
2021/11/16 02:11:34;;;;;;;25.00;16.40;;;10.30;99.50;;;;;;5053300;28;20409;-67
2021/11/16 02:14:01;;;;;;;22.17;16.87;;;10.20;99.50;;;;;;5052647;28;20455;-67
2021/11/16 02:16:28;;;;;;;23.90;17.13;;;10.20;99.50;;;;;;5053111;28;20420;-67
2021/11/16 02:18:53;;;;;;;21.73;16.60;;;10.20;99.60;;;;;;5053439;28;20426;-67
2021/11/16 02:21:19;;;;;;;24.70;16.00;;;10.20;99.60;;;;;;5052814;28;20421;-67
2021/11/16 02:23:46;;;;;;;24.20;16.40;;;10.30;99.60;;;;;;5053706;28;20178;-66
2021/11/16 02:26:13;;;;;;;24.30;16.90;;;10.20;99.50;;;;;;5052088;28;20236;-67
2021/11/16 02:28:43;;;;;;;25.40;17.47;;;10.30;99.60;;;;;;5053173;28;20443;-67
2021/11/16 02:31:09;;;;;;;25.33;17.37;;;10.30;99.50;;;;;;5052625;28;20396;-67
2021/11/16 02:33:35;;;;;;;23.63;17.93;;;10.30;99.30;;;;;;5053149;28;20406;-67
2021/11/16 02:36:01;;;;;;;23.13;16.90;;;10.40;99.10;;;;;;5052052;28;20827;-67
2021/11/16 02:38:27;;;;;;;26.47;18.20;;;10.30;99.10;;;;;;5053003;28;20256;-67
2021/11/16 02:40:53;;;;;;;23.47;15.97;;;10.20;99.40;;;;;;5053103;28;20174;-67
2021/11/16 02:43:19;;;;;;;21.93;15.70;;;10.20;99.50;;;;;;5052424;28;20408;-67
2021/11/16 02:45:46;;;;;;;17.03;13.27;;;10.20;99.50;;;;;;5052930;28;20547;-67
2021/11/16 02:48:12;;;;;;;22.03;16.33;;;10.30;99.40;;;;;;5051833;28;20926;-67
2021/11/16 02:50:44;;;;;;;19.73;14.97;;;10.30;99.40;;;;;;5052978;28;20446;-67
2021/11/16 02:53:10;;;;;;;20.73;15.20;;;10.30;99.40;;;;;;5052268;28;20920;-67
2021/11/16 02:55:36;;;;;;;19.63;14.97;;;10.30;99.30;;;;;;5052825;28;20405;-67
2021/11/16 02:58:03;;;;;;;19.97;15.00;;;10.40;99.20;;;;;;5052218;28;20422;-68
2021/11/16 03:00:29;;;;;;;17.40;14.10;;;10.30;98.90;;;;;;5052465;28;20451;-66
2021/11/16 03:02:55;;;;;;;16.30;12.97;;;10.30;99.10;;;;;;5052790;28;20435;-67
2021/11/16 03:05:21;;;;;;;18.40;13.30;;;10.30;99.10;;;;;;5052080;28;20709;-67
2021/11/16 03:07:55;;;;;;;17.63;12.97;;;10.40;99.10;;;;;;5052637;28;20444;-67
2021/11/16 03:10:29;;;;;;;16.63;12.37;;;10.40;99.10;;;;;;5050926;28;20401;-67
2021/11/16 03:12:55;;;;;;;18.30;14.20;;;10.40;99.00;;;;;;5052278;28;20770;-67
2021/11/16 03:15:20;;;;;;;15.40;12.70;;;10.40;99.00;;;;;;5052156;28;20415;-67
2021/11/16 03:17:47;;;;;;;15.87;12.50;;;10.40;99.00;;;;;;5052561;28;20181;-67
2021/11/16 03:20:15;;;;;;;15.57;12.43;;;10.50;99.10;;;;;;5051931;28;20490;-67
2021/11/16 03:22:52;;;;;;;16.00;12.47;;;10.30;98.70;;;;;;5052568;28;20909;-67
2021/11/16 03:25:23;;;;;;;16.27;13.07;;;10.30;98.90;;;;;;5051452;28;20514;-67
2021/11/16 03:27:57;;;;;;;16.73;12.97;;;10.30;98.90;;;;;;5052255;28;20435;-67
2021/11/16 03:30:23;;;;;;;16.30;12.53;;;10.40;99.00;;;;;;5051899;28;20466;-66
2021/11/16 03:32:49;;;;;;;15.60;12.43;;;10.40;98.90;;;;;;5052788;28;20415;-67
2021/11/16 03:35:16;;;;;;;16.63;13.10;;;10.40;98.80;;;;;;5051133;28;20434;-71
2021/11/16 03:37:48;;;;;;;18.23;13.30;;;10.40;98.70;;;;;;5052117;28;20782;-67
2021/11/16 03:40:16;;;;;;;17.77;13.13;;;10.40;98.60;;;;;;5051932;28;20391;-67
2021/11/16 03:42:48;;;;;;;16.03;12.30;;;10.40;98.60;;;;;;5052384;28;20397;-67
2021/11/16 03:45:16;;;;;;;17.23;13.27;;;10.50;98.80;;;;;;5051075;28;20948;-67
2021/11/16 03:47:42;;;;;;;16.63;13.60;;;10.40;98.60;;;;;;5052575;28;20420;-67
2021/11/16 03:50:11;;;;;;;17.10;13.80;;;10.40;98.40;;;;;;5053824;28;20461;-69
2021/11/16 03:52:41;;;;;;;19.80;14.60;;;10.40;98.70;;;;;;5056387;28;20406;-67
2021/11/16 03:55:07;;;;;;;17.50;13.20;;;10.40;98.90;;;;;;5055612;28;20853;-67
2021/11/16 03:57:35;;;;;;;16.53;13.53;;;10.30;98.80;;;;;;5055909;28;20422;-67
2021/11/16 04:00:03;;;;;;;17.10;13.77;;;10.30;99.00;;;;;;5056219;28;21002;-67
2021/11/16 04:02:29;;;;;;;16.93;12.50;;;10.30;99.20;;;;;;5055542;28;20404;-67
2021/11/16 04:04:55;;;;;;;14.53;12.03;;;10.30;98.70;;;;;;5056054;28;20746;-67
2021/11/16 04:07:21;;;;;;;15.50;11.50;;;10.40;98.60;;;;;;5055403;28;20413;-67
2021/11/16 04:09:48;;;;;;;18.10;13.67;;;10.20;98.60;;;;;;5055641;28;20907;-67
2021/11/16 04:12:14;;;;;;;15.37;13.10;;;10.10;98.80;;;;;;5055277;28;20435;-67
2021/11/16 04:14:41;;;;;;;17.23;12.30;;;10.10;99.10;;;;;;5055962;28;20411;-67
2021/11/16 04:17:07;;;;;;;14.77;13.07;;;10.10;99.10;;;;;;5055204;28;20180;-68
2021/11/16 04:19:32;;;;;;;14.87;12.63;;;10.20;99.10;;;;;;5055763;28;20431;-67
2021/11/16 04:21:58;;;;;;;14.07;11.97;;;10.20;99.00;;;;;;5055405;28;20177;-67
2021/11/16 04:24:24;;;;;;;14.33;12.83;;;10.20;99.00;;;;;;5055053;28;20176;-67
2021/11/16 04:26:50;;;;;;;16.80;12.57;;;10.30;98.90;;;;;;5055708;28;20405;-67
2021/11/16 04:29:15;;;;;;;17.07;14.17;;;10.20;98.70;;;;;;5054545;28;20231;-67
2021/11/16 04:31:41;;;;;;;14.77;12.13;;;10.30;98.90;;;;;;5055623;28;20183;-67
2021/11/16 04:34:07;;;;;;;16.37;13.63;;;10.20;98.80;;;;;;5054773;28;20639;-74
2021/11/16 04:36:35;;;;;;;16.03;13.30;;;10.30;99.10;;;;;;5055142;28;20214;-67
2021/11/16 04:39:01;;;;;;;16.70;12.77;;;10.30;99.20;;;;;;5054942;28;20453;-69
2021/11/16 04:41:27;;;;;;;16.07;13.37;;;10.20;98.70;;;;;;5054603;28;20692;-67
2021/11/16 04:43:55;;;;;;;16.30;11.77;;;10.10;99.10;;;;;;5055215;28;20407;-67
2021/11/16 04:46:23;;;;;;;14.63;12.80;;;10.10;99.10;;;;;;5054540;28;20842;-67
2021/11/16 04:49:01;;;;;;;17.63;13.27;;;10.10;99.10;;;;;;5055193;28;20456;-66
2021/11/16 05:04:49;;;;;;;16.73;13.40;;;10.20;99.60;;;;;;5055022;28;20399;-67
2021/11/16 05:07:17;;;;;;;18.20;12.20;;;10.30;99.40;;;;;;5054209;28;20455;-67
2021/11/16 05:09:49;;;;;;;17.17;12.27;;;10.30;99.30;;;;;;5054154;28;20510;-67
2021/11/16 05:12:15;;;;;;;17.27;12.70;;;10.30;99.20;;;;;;5054169;28;20416;-66
2021/11/16 05:14:41;;;;;;;16.43;12.13;;;10.40;99.20;;;;;;5054396;28;20920;-66
2021/11/16 05:17:07;;;;;;;15.17;12.33;;;10.30;99.00;;;;;;5053800;28;20460;-67
2021/11/16 05:19:33;;;;;;;16.23;14.57;;;10.40;99.00;;;;;;5052646;28;20182;-67
2021/11/16 05:21:58;;;;;;;17.13;12.73;;;10.40;99.20;;;;;;5054496;28;20614;-66
2021/11/16 05:24:25;;;;;;;17.90;13.37;;;10.30;99.20;;;;;;5053374;28;20166;-67
2021/11/16 05:26:52;;;;;;;17.40;12.77;;;10.30;99.20;;;;;;5053899;28;20184;-67
2021/11/16 05:29:18;;;;;;;16.87;12.93;;;10.30;99.10;;;;;;5052016;28;20469;-67
2021/11/16 05:31:43;;;;;;;17.20;14.03;;;10.30;99.10;;;;;;5053523;28;20934;-67
2021/11/16 05:34:09;;;;;;;18.57;13.00;;;10.30;99.30;;;;;;5052708;28;20178;-67
2021/11/16 05:36:35;;;;;;;13.77;10.63;;;10.20;99.20;;;;;;5053191;28;20194;-67
2021/11/16 05:39:01;;;;;;;16.43;11.87;;;10.20;99.10;;;;;;5053715;28;20609;-66
2021/11/16 05:41:26;;;;;;;18.80;12.30;;;10.30;99.30;;;;;;5052983;28;20199;-66
2021/11/16 05:43:52;;;;;;;16.37;12.50;;;10.30;99.30;;;;;;5053509;28;20227;-67
2021/11/16 05:46:22;;;;;;;17.90;13.60;;;10.30;99.20;;;;;;5051444;28;20577;-67
2021/11/16 05:48:50;;;;;;;17.60;14.17;;;10.30;99.20;;;;;;5054204;28;20563;-67
2021/11/16 05:51:18;;;;;;;18.40;14.20;;;10.30;99.20;;;;;;5053702;28;20422;-67
2021/11/16 05:53:46;;;;;;;17.93;13.03;;;10.40;99.10;;;;;;5053954;28;20964;-66
2021/11/16 05:56:12;;;;;;;17.90;14.03;;;10.40;99.30;;;;;;5052994;28;20422;-73
2021/11/16 05:58:42;;;;;;;20.70;14.83;;;10.40;99.60;;;;;;5053700;28;20775;-66
2021/11/16 06:01:08;;;;;;;22.07;14.57;;;10.30;99.20;;;;;;5053096;28;20485;-67
2021/11/16 06:03:34;;;;;;;19.43;14.23;;;10.30;99.20;;;;;;5052611;28;20398;-67
2021/11/16 06:06:00;;;;;;;20.40;14.30;;;10.30;99.30;;;;;;5053158;28;20424;-68
2021/11/16 06:08:28;;;;;;;18.33;13.97;;;10.30;99.30;;;;;;5051615;28;20488;-67
2021/11/16 06:10:55;;;;;;;17.93;13.80;;;10.30;99.60;;;;;;5051728;28;20185;-67
2021/11/16 06:13:22;;;;;;;17.83;13.90;;;10.30;99.40;;;;;;5052176;28;20767;-67
2021/11/16 06:15:48;;;;;;;19.57;14.03;;;10.30;99.50;;;;;;5053144;28;20820;-67
2021/11/16 06:18:14;;;;;;;21.10;14.50;;;10.20;99.60;;;;;;5052854;28;20424;-68
2021/11/16 06:20:43;;;;;;;18.37;14.07;;;10.30;99.80;;;;;;5053133;28;20407;-67
2021/11/16 06:23:10;;;;;;;18.70;14.80;;;10.30;99.80;;;;;;5053376;28;20407;-67
2021/11/16 06:25:39;;;;;;;19.77;14.20;;;10.30;99.70;;;;;;5052689;28;20417;-67
2021/11/16 06:28:05;;;;;;;18.60;14.67;;;10.30;99.90;;;;;;5053209;28;20503;-67
2021/11/16 06:30:31;;;;;;;17.53;13.43;;;10.30;99.80;;;;;;5052688;28;20509;-67
2021/11/16 06:32:57;;;;;;;18.17;14.17;;;10.20;99.80;;;;;;5053482;28;20173;-67
2021/11/16 06:35:23;;;;;;;19.10;14.20;;;10.20;99.80;;;;;;5051837;28;20181;-68
2021/11/16 06:37:49;;;;;;;20.03;14.40;;;10.30;99.40;;;;;;5052920;28;20178;-67
2021/11/16 06:40:17;;;;;;;17.30;14.10;;;10.20;99.40;;;;;;5051789;28;20425;-69
2021/11/16 06:42:43;;;;;;;18.40;13.60;;;10.20;99.50;;;;;;5053133;28;20417;-67
2021/11/16 06:45:10;;;;;;;19.20;14.03;;;10.30;99.60;;;;;;5052307;28;20460;-67
2021/11/16 06:47:36;;;;;;;20.47;14.43;;;10.20;99.60;;;;;;5051698;28;20475;-68
2021/11/16 06:50:03;;;;;;;18.20;14.00;;;10.20;99.90;;;;;;5052764;28;20453;-69
2021/11/16 06:52:33;;;;;;;19.30;13.77;;;10.20;99.80;;;;;;5051801;28;20479;-68
2021/11/16 06:54:59;;;;;;;20.13;13.83;;;10.30;99.80;;;;;;5052494;28;20458;-68
2021/11/16 06:57:28;;;;;;;15.83;11.30;;;10.30;99.80;;;;;;5052090;28;20445;-70
2021/11/16 06:59:54;;;;;;;19.03;15.20;;;10.50;99.90;;;;;;5051268;28;20234;-71
2021/11/16 07:02:24;;;;;;;13.13;10.13;;;11.50;99.90;;;;;;5052151;28;20910;-71
2021/11/16 07:04:49;;;;;;;17.07;14.10;;;12.10;99.90;;;;;;5052182;28;20416;-70
2021/11/16 07:07:16;;;;;;;19.07;15.40;;;12.80;99.90;;;;;;5051394;28;20442;-70
2021/11/16 07:09:43;;;;;;;15.73;14.03;;;13.20;99.90;;;;;;5052480;28;20201;-70
2021/11/16 07:12:15;;;;;;;18.63;15.73;;;13.70;99.70;;;;;;5052653;28;20736;-70
2021/11/16 07:14:41;;;;;;;14.83;11.57;;;13.90;96.90;;;;;;5051978;28;20445;-70
2021/11/16 07:17:13;;;;;;;18.33;15.00;;;14.20;99.90;;;;;;5052162;28;20435;-70
2021/11/16 07:19:45;;;;;;;18.43;14.50;;;14.70;99.90;;;;;;5051969;28;20401;-71
2021/11/16 07:22:13;;;;;;;18.50;14.60;;;14.80;95.20;;;;;;5052482;28;20400;-71
2021/11/16 07:24:46;;;;;;;17.67;14.67;;;14.80;93.10;;;;;;5050507;28;20436;-71
2021/11/16 07:27:13;;;;;;;21.57;17.50;;;14.80;95.40;;;;;;5052208;28;20767;-71
2021/11/16 07:29:47;;;;;;;12.53;10.67;;;14.80;96.40;;;;;;5060933;28;20509;-71
2021/11/16 07:32:18;;;;;;;17.87;13.73;;;14.90;97.10;;;;;;5061009;28;20435;-71
2021/11/16 07:34:44;;;;;;;17.70;14.57;;;15.00;94.20;;;;;;5072611;28;20395;-71
2021/11/16 07:37:19;;;;;;;18.63;14.70;;;15.00;92.40;;;;;;5056405;28;20433;-71
2021/11/16 07:40:07;;;;;;;20.70;15.00;;;14.90;91.20;;;;;;5052219;28;20407;-71
2021/11/16 07:42:36;;;;;;;20.03;15.83;;;14.70;90.80;;;;;;5055599;28;20403;-71
2021/11/16 07:45:15;;;;;;;18.10;15.60;;;14.40;90.80;;;;;;5051995;28;20854;-72
2021/11/16 07:48:01;;;;;;;19.20;14.90;;;14.20;91.00;;;;;;5051745;28;20404;-69
2021/11/16 07:50:30;;;;;;;16.17;13.07;;;14.10;91.60;;;;;;5052030;28;20416;-69
2021/11/16 07:53:09;;;;;;;19.17;15.10;;;14.00;91.60;;;;;;5052370;28;20533;-69
2021/11/16 07:55:35;;;;;;;17.07;12.90;;;13.60;91.80;;;;;;5051607;28;20392;-69
2021/11/16 07:58:10;;;;;;;18.77;14.03;;;13.30;92.10;;;;;;5052201;28;20408;-69
2021/11/16 08:00:39;;;;;;;16.50;12.90;;;13.00;92.70;;;;;;5051126;28;20413;-69
2021/11/16 08:03:11;;;;;;;17.40;15.10;;;12.80;93.30;;;;;;5052151;28;20748;-70
2021/11/16 08:05:45;;;;;;;19.57;13.63;;;12.50;93.90;;;;;;5051613;28;20406;-70
2021/11/16 08:10:49;;;;;;;18.67;13.03;;;12.10;95.10;;;;;;5051214;28;20414;-70
2021/11/16 08:13:19;;;;;;;16.87;13.20;;;12.00;95.60;;;;;;5051560;28;20412;-69
2021/11/16 08:15:45;;;;;;;17.13;12.50;;;11.80;96.10;;;;;;5033793;28;20522;-69
2021/11/16 08:18:15;;;;;;;18.90;13.13;;;11.80;96.60;;;;;;5051548;28;20952;-69
2021/11/16 08:20:42;;;;;;;20.47;13.23;;;11.50;96.90;;;;;;5051402;28;20503;-69
2021/11/16 08:23:09;;;;;;;20.20;13.60;;;11.50;97.20;;;;;;5051311;28;20756;-69
2021/11/16 08:25:38;;;;;;;15.70;12.30;;;11.30;97.50;;;;;;5051107;28;20426;-69
2021/11/16 08:28:08;;;;;;;16.03;12.20;;;11.20;98.20;;;;;;5051638;28;20455;-69
2021/11/16 08:30:35;;;;;;;16.00;13.07;;;11.20;98.40;;;;;;5051212;28;20415;-70
2021/11/16 08:33:02;;;;;;;17.33;13.03;;;11.10;98.50;;;;;;5051609;28;20514;-69
2021/11/16 08:35:28;;;;;;;17.03;11.97;;;11.00;98.80;;;;;;5052973;28;20418;-69
2021/11/16 08:38:00;;;;;;;14.80;11.47;;;10.90;99.00;;;;;;5054747;28;21001;-69
2021/11/16 08:40:29;;;;;;;17.77;12.90;;;10.90;99.20;;;;;;5053799;28;20416;-69
2021/11/16 08:43:17;;;;;;;20.20;14.17;;;10.80;99.40;;;;;;5054825;28;20463;-69
2021/11/16 08:45:49;;;;;;;16.60;12.80;;;10.80;99.60;;;;;;5054462;28;20471;-70
2021/11/16 08:48:19;;;;;;;17.97;13.00;;;10.70;99.80;;;;;;5054718;28;20507;-69
2021/11/16 08:50:48;;;;;;;17.80;12.37;;;10.70;99.90;;;;;;5054633;28;20885;-69
2021/11/16 08:53:21;;;;;;;16.37;12.47;;;10.70;99.90;;;;;;5054905;28;20481;-69
2021/11/16 08:55:47;;;;;;;18.60;12.93;;;10.60;99.90;;;;;;5054637;28;20393;-69
2021/11/16 08:58:15;;;;;;;18.07;13.27;;;10.60;99.90;;;;;;5055025;28;20493;-69
2021/11/16 09:00:51;;;;;;;15.93;12.80;;;10.50;99.90;;;;;;5054223;28;20428;-69
2021/11/16 09:03:26;;;;;;;17.80;12.87;;;10.50;99.90;;;;;;5054410;28;20949;-69
2021/11/16 09:05:53;;;;;;;17.47;12.00;;;10.50;99.90;;;;;;5055032;28;20480;-68
2021/11/16 09:08:22;;;;;;;19.23;13.00;;;10.50;99.90;;;;;;5053944;28;20420;-70
2021/11/16 09:11:16;;;;;;;19.10;13.80;;;10.40;99.90;;;;;;5054410;28;20417;-70
2021/11/16 09:13:43;;;;;;;18.23;11.90;;;10.40;99.90;;;;;;5048902;28;20521;-70
2021/11/16 09:16:19;;;;;;;16.23;12.50;;;10.40;99.90;;;;;;5054498;28;20905;-70
2021/11/16 09:18:48;;;;;;;17.03;11.27;;;10.40;99.90;;;;;;5053642;28;20540;-70
2021/11/16 09:21:20;;;;;;;20.50;14.43;;;10.40;99.90;;;;;;5054389;28;20516;-70
2021/11/16 09:23:50;;;;;;;17.20;11.37;;;10.40;99.90;;;;;;5053480;28;20964;-70
2021/11/16 09:27:11;;;;;;;18.80;12.03;;;10.40;99.90;;;;;;5054467;28;20750;-70
2021/11/16 09:29:21;;;;;;;15.83;12.30;;;10.40;99.90;;;;;;5050856;28;20901;-70
2021/11/16 09:31:50;;;;;;;17.40;12.27;;;10.40;99.90;;;;;;5053769;28;20487;-70
2021/11/16 09:34:16;;;;;;;18.10;11.70;;;10.40;99.90;;;;;;5054240;28;20761;-70
2021/11/16 09:36:45;;;;;;;13.23;10.07;;;10.30;99.90;;;;;;5053226;28;20397;-70
2021/11/16 09:39:17;;;;;;;16.17;11.00;;;10.30;99.90;;;;;;5054344;28;20264;-71
2021/11/16 09:41:59;;;;;;;14.70;11.80;;;10.30;99.90;;;;;;5053303;28;20413;-70
2021/11/16 09:44:28;;;;;;;17.60;12.63;;;10.30;99.90;;;;;;5053678;28;20392;-82
2021/11/16 09:47:07;;;;;;;13.50;12.00;;;10.30;99.90;;;;;;5052991;28;20843;-70
2021/11/16 09:49:36;;;;;;;14.87;11.20;;;10.30;99.90;;;;;;5053465;28;20487;-70
2021/11/16 09:52:02;;;;;;;12.77;9.67;;;10.30;99.90;;;;;;5054239;28;20443;-70
2021/11/16 09:54:28;;;;;;;12.70;10.33;;;10.30;99.90;;;;;;5053339;28;20404;-70
2021/11/16 09:57:09;;;;;;;17.40;12.27;;;10.20;99.90;;;;;;5052782;28;20175;-70
2021/11/16 09:59:37;;;;;;;14.20;11.80;;;10.30;99.90;;;;;;5053344;28;20405;-70
2021/11/16 10:02:04;;;;;;;15.30;11.67;;;10.20;99.90;;;;;;5069237;28;20766;-70
2021/11/16 10:04:35;;;;;;;16.03;11.40;;;10.20;99.90;;;;;;5053226;28;20391;-70
2021/11/16 10:07:01;;;;;;;13.57;11.93;;;10.20;99.90;;;;;;5053871;28;20531;-70
2021/11/16 10:09:27;;;;;;;18.13;12.57;;;10.20;99.90;;;;;;5053017;28;20536;-81
2021/11/16 10:11:53;;;;;;;16.60;11.40;;;10.10;99.90;;;;;;5052587;28;20589;-71
2021/11/16 10:14:22;;;;;;;16.17;11.77;;;10.10;99.90;;;;;;5053480;28;20423;-71
2021/11/16 10:16:50;;;;;;;15.73;11.33;;;10.10;99.90;;;;;;5052942;28;20908;-70
2021/11/16 10:19:16;;;;;;;18.67;13.70;;;10.20;99.90;;;;;;5053506;28;20482;-70
2021/11/16 10:21:42;;;;;;;15.40;12.17;;;10.10;99.90;;;;;;5052893;28;20747;-70
2021/11/16 10:24:40;;;;;;;16.53;11.63;;;10.10;99.90;;;;;;5053398;28;20403;-70
2021/11/16 10:27:32;;;;;;;15.23;11.20;;;10.00;99.90;;;;;;5030567;28;20416;-70
2021/11/16 10:30:23;;;;;;;16.30;12.70;;;10.00;99.90;;;;;;5053241;28;20848;-70
2021/11/16 10:33:14;;;;;;;17.70;11.53;;;10.10;99.90;;;;;;5052750;28;20880;-70
2021/11/16 10:35:51;;;;;;;16.10;11.40;;;10.10;99.90;;;;;;5052579;28;20417;-70
2021/11/16 10:38:19;;;;;;;20.47;12.30;;;10.10;99.90;;;;;;5053188;28;20918;-70
2021/11/16 10:40:46;;;;;;;15.80;12.97;;;10.10;99.90;;;;;;5052155;28;20457;-70
2021/11/16 10:43:13;;;;;;;16.13;11.77;;;10.10;99.90;;;;;;5052885;28;20404;-70
2021/11/16 10:45:44;;;;;;;15.00;12.03;;;10.10;99.90;;;;;;5051239;28;20456;-70
2021/11/16 10:48:13;;;;;;;17.67;13.17;;;10.20;99.90;;;;;;5051190;28;20802;-70
2021/11/16 10:50:42;;;;;;;15.43;12.83;;;10.20;99.90;;;;;;5052402;28;20417;-70
2021/11/16 10:53:09;;;;;;;15.97;11.80;;;10.30;99.90;;;;;;5053189;28;20829;-70
2021/11/16 10:55:50;;;;;;;15.67;11.20;;;10.30;99.90;;;;;;5052263;28;20419;-70
2021/11/16 10:58:28;;;;;;;18.63;12.83;;;10.40;99.90;;;;;;5051682;28;20814;-70
2021/11/16 11:00:58;;;;;;;15.30;10.60;;;10.40;99.90;;;;;;5051988;28;20450;-70
2021/11/16 11:03:31;;;;;;;17.27;12.03;;;10.40;99.90;;;;;;5052870;28;20476;-70
2021/11/16 11:06:09;;;;;;;14.07;10.27;;;10.50;99.90;;;;;;5052745;28;20910;-70
2021/11/16 11:08:38;;;;;;;13.07;10.47;;;10.50;99.90;;;;;;5052103;28;20482;-70
2021/11/16 11:11:14;;;;;;;12.80;10.43;;;10.50;99.90;;;;;;5052593;28;20418;-70
2021/11/16 11:13:40;;;;;;;14.23;10.53;;;10.50;99.90;;;;;;5052128;28;20839;-70
2021/11/16 11:16:17;;;;;;;13.30;9.47;;;10.50;99.90;;;;;;5052871;28;20449;-70
2021/11/16 11:18:48;;;;;;;14.53;10.40;;;10.50;99.90;;;;;;5051984;28;20819;-70
2021/11/16 11:21:43;;;;;;;11.90;9.30;;;10.50;99.90;;;;;;5052713;28;20415;-70
2021/11/16 11:24:23;;;;;;;12.53;10.77;;;10.50;99.90;;;;;;5052469;28;20390;-70
2021/11/16 11:26:56;;;;;;;12.37;9.43;;;10.40;99.90;;;;;;5051895;28;20399;-70
2021/11/16 11:29:30;;;;;;;15.47;10.17;;;10.50;99.90;;;;;;5052221;28;20488;-70
2021/11/16 11:32:15;;;;;;;13.07;9.63;;;10.50;99.90;;;;;;5052503;28;20884;-70
2021/11/16 11:34:48;;;;;;;12.53;9.70;;;10.50;99.90;;;;;;5051815;28;20405;-70
2021/11/16 11:37:24;;;;;;;11.80;9.50;;;10.50;99.90;;;;;;5052503;28;20515;-70
2021/11/16 11:40:04;;;;;;;13.07;10.23;;;10.50;99.90;;;;;;5051754;28;20813;-70
2021/11/16 11:42:34;;;;;;;11.27;7.90;;;10.50;99.90;;;;;;5052494;28;20405;-70
2021/11/16 11:45:15;;;;;;;8.50;7.60;;;10.60;99.90;;;;;;5051901;28;20831;-70
2021/11/16 11:47:41;;;;;;;9.80;7.33;;;10.50;99.90;;;;;;5051293;28;20893;-70
2021/11/16 11:50:24;;;;;;;9.63;8.70;;;10.50;99.90;;;;;;5052080;28;20997;-70
2021/11/16 11:52:51;;;;;;;10.60;8.10;;;10.40;98.80;;;;;;5051665;28;20437;-70
2021/11/16 11:55:17;;;;;;;11.17;9.13;;;10.40;98.90;;;;;;5052351;28;20415;-70
2021/11/16 11:57:43;;;;;;;9.87;8.43;;;10.30;98.90;;;;;;5051602;28;20603;-70
2021/11/16 12:00:10;;;;;;;9.00;8.10;;;10.20;99.10;;;;;;5052095;28;20486;-70
2021/11/16 12:02:37;;;;;;;10.73;9.73;;;10.20;99.20;;;;;;5051542;28;20243;-70
2021/11/16 12:05:03;;;;;;;10.97;8.53;;;10.20;99.70;;;;;;5052171;28;20495;-70
2021/11/16 12:07:30;;;;;;;10.70;8.67;;;10.20;99.90;;;;;;5051746;28;20402;-70
2021/11/16 12:09:57;;;;;;;8.57;7.30;;;10.30;99.80;;;;;;5052729;28;20487;-70
2021/11/16 12:12:23;;;;;;;7.77;6.97;;;10.30;99.60;;;;;;5055941;28;20417;-70
2021/11/16 12:15:09;;;;;;;8.83;7.80;;;10.40;99.30;;;;;;5055357;28;20443;-70
2021/11/16 12:17:46;;;;;;;9.50;7.43;;;10.40;99.30;;;;;;5054916;28;20420;-83
2021/11/16 12:20:37;;;;;;;10.50;8.20;;;10.50;99.20;;;;;;5055832;28;20398;-70
2021/11/16 12:23:05;;;;;;;9.30;7.60;;;10.50;99.10;;;;;;5055119;28;20462;-70
2021/11/16 12:25:30;;;;;;;9.83;7.23;;;10.50;99.00;;;;;;5055177;28;20782;-70
2021/11/16 12:27:58;;;;;;;10.23;8.00;;;10.50;98.70;;;;;;5055031;28;20407;-70
2021/11/16 12:30:47;;;;;;;11.83;7.80;;;10.50;98.90;;;;;;5055257;28;20575;-70
2021/11/16 12:33:13;;;;;;;9.00;7.57;;;10.50;99.10;;;;;;5055509;28;20888;-70
2021/11/16 12:35:47;;;;;;;10.70;8.30;;;10.60;99.20;;;;;;5054664;28;20399;-70
2021/11/16 12:38:16;;;;;;;11.13;8.80;;;10.60;99.00;;;;;;5055224;28;20408;-69
2021/11/16 12:40:43;;;;;;;10.80;9.13;;;10.50;98.90;;;;;;5054651;28;20424;-70
2021/11/16 12:43:20;;;;;;;10.13;7.33;;;10.60;99.00;;;;;;5055223;28;20412;-70
2021/11/16 12:45:50;;;;;;;9.50;7.67;;;10.60;98.70;;;;;;5054348;28;20470;-70
2021/11/16 12:48:20;;;;;;;8.60;7.70;;;10.40;98.40;;;;;;5055228;28;20463;-70
2021/11/16 12:51:06;;;;;;;7.90;7.13;;;10.40;98.70;;;;;;5054943;28;20897;-69
2021/11/16 12:54:03;;;;;;;10.97;9.93;;;10.50;98.60;;;;;;5055161;28;20417;-69
2021/11/16 12:56:45;;;;;;;10.13;9.10;;;10.50;98.30;;;;;;5055069;28;20820;-70
2021/11/16 12:59:34;;;;;;;8.70;7.70;;;10.50;98.00;;;;;;5055210;28;20413;-69